sensor_id;sensor_type;location;lat;lon;timestamp;pressure;altitude;pressure_sealevel;temperature;humidity
64792;BME280;51226;47.504;19.074;2023-07-31T00:00:37;99903.06;;;21.20;76.67
64792;BME280;51226;47.504;19.074;2023-07-31T00:03:59;99895.16;;;21.16;76.77
64792;BME280;51226;47.504;19.074;2023-07-31T00:07:02;99894.22;;;21.18;76.67
64792;BME280;51226;47.504;19.074;2023-07-31T00:10:07;99896.84;;;21.20;76.06
64792;BME280;51226;47.504;19.074;2023-07-31T00:13:09;99891.56;;;21.18;76.09
64792;BME280;51226;47.504;19.074;2023-07-31T00:16:13;99895.91;;;21.25;75.39
64792;BME280;51226;47.504;19.074;2023-07-31T00:19:16;99894.13;;;21.27;74.92
64792;BME280;51226;47.504;19.074;2023-07-31T00:22:19;99894.22;;;21.18;75.36
64792;BME280;51226;47.504;19.074;2023-07-31T00:25:21;99899.41;;;21.27;74.43
64792;BME280;51226;47.504;19.074;2023-07-31T00:28:24;99895.97;;;21.22;74.71
64792;BME280;51226;47.504;19.074;2023-07-31T00:31:26;99902.19;;;21.18;75.07
64792;BME280;51226;47.504;19.074;2023-07-31T00:34:30;99904.88;;;21.17;75.14
64792;BME280;51226;47.504;19.074;2023-07-31T00:37:32;99893.34;;;21.19;74.94
64792;BME280;51226;47.504;19.074;2023-07-31T00:40:36;99900.38;;;21.23;74.31
64792;BME280;51226;47.504;19.074;2023-07-31T00:43:39;99905.62;;;21.25;74.10
64792;BME280;51226;47.504;19.074;2023-07-31T00:46:42;99910.91;;;21.26;73.98
64792;BME280;51226;47.504;19.074;2023-07-31T00:49:45;99908.19;;;21.33;73.67
64792;BME280;51226;47.504;19.074;2023-07-31T00:52:48;99912.66;;;21.31;73.90
64792;BME280;51226;47.504;19.074;2023-07-31T00:55:52;99918.63;;;21.45;72.54
64792;BME280;51226;47.504;19.074;2023-07-31T00:58:55;99915.25;;;21.35;73.16
64792;BME280;51226;47.504;19.074;2023-07-31T01:01:58;99914.34;;;21.35;72.93
64792;BME280;51226;47.504;19.074;2023-07-31T01:05:01;99921.50;;;21.29;73.30
64792;BME280;51226;47.504;19.074;2023-07-31T01:08:05;99915.31;;;21.29;73.30
64792;BME280;51226;47.504;19.074;2023-07-31T01:11:46;99919.53;;;21.44;72.32
64792;BME280;51226;47.504;19.074;2023-07-31T01:14:40;99911.53;;;21.50;71.94
64792;BME280;51226;47.504;19.074;2023-07-31T01:17:44;99912.41;;;21.49;71.65
64792;BME280;51226;47.504;19.074;2023-07-31T01:20:47;99915.28;;;21.32;72.77
64792;BME280;51226;47.504;19.074;2023-07-31T01:24:08;99926.75;;;21.34;72.57
64792;BME280;51226;47.504;19.074;2023-07-31T01:27:14;99928.72;;;21.18;73.38
64792;BME280;51226;47.504;19.074;2023-07-31T01:30:19;99937.66;;;21.09;73.91
64792;BME280;51226;47.504;19.074;2023-07-31T01:33:24;99940.41;;;21.03;74.35
64792;BME280;51226;47.504;19.074;2023-07-31T01:36:28;99937.75;;;21.05;74.06
64792;BME280;51226;47.504;19.074;2023-07-31T01:39:32;99937.00;;;20.94;74.70
64792;BME280;51226;47.504;19.074;2023-07-31T01:42:35;99937.88;;;20.91;74.95
64792;BME280;51226;47.504;19.074;2023-07-31T01:45:37;99934.34;;;20.92;74.91
64792;BME280;51226;47.504;19.074;2023-07-31T01:48:40;99936.16;;;20.88;75.26
64792;BME280;51226;47.504;19.074;2023-07-31T01:51:42;99933.41;;;20.95;74.72
64792;BME280;51226;47.504;19.074;2023-07-31T01:54:45;99928.25;;;20.85;75.33
64792;BME280;51226;47.504;19.074;2023-07-31T01:57:48;99930.06;;;20.80;75.61
64792;BME280;51226;47.504;19.074;2023-07-31T02:00:51;99912.94;;;21.09;73.80
64792;BME280;51226;47.504;19.074;2023-07-31T02:03:54;99917.41;;;21.04;74.12
64792;BME280;51226;47.504;19.074;2023-07-31T02:06:57;99918.31;;;21.03;73.98
64792;BME280;51226;47.504;19.074;2023-07-31T02:10:00;99914.84;;;20.96;74.14
64792;BME280;51226;47.504;19.074;2023-07-31T02:13:03;99905.28;;;20.81;74.71
64792;BME280;51226;47.504;19.074;2023-07-31T02:16:06;99905.31;;;20.80;74.85
64792;BME280;51226;47.504;19.074;2023-07-31T02:19:09;99911.50;;;20.82;74.44
64792;BME280;51226;47.504;19.074;2023-07-31T02:22:11;99915.91;;;20.81;74.35
64792;BME280;51226;47.504;19.074;2023-07-31T02:25:14;99923.72;;;20.94;73.65
64792;BME280;51226;47.504;19.074;2023-07-31T02:28:16;99926.56;;;20.78;74.58
64792;BME280;51226;47.504;19.074;2023-07-31T02:31:20;99925.78;;;20.68;75.13
64792;BME280;51226;47.504;19.074;2023-07-31T02:34:24;99927.59;;;20.62;75.48
64792;BME280;51226;47.504;19.074;2023-07-31T02:37:28;99925.87;;;20.56;75.66
64792;BME280;51226;47.504;19.074;2023-07-31T02:40:31;99937.31;;;20.63;74.99
64792;BME280;51226;47.504;19.074;2023-07-31T02:43:34;99931.16;;;20.58;75.17
64792;BME280;51226;47.504;19.074;2023-07-31T02:46:36;99934.75;;;20.50;75.18
64792;BME280;51226;47.504;19.074;2023-07-31T02:49:39;99930.34;;;20.49;75.17
64792;BME280;51226;47.504;19.074;2023-07-31T02:52:42;99923.31;;;20.48;74.74
64792;BME280;51226;47.504;19.074;2023-07-31T02:55:45;99939.22;;;20.48;74.57
64792;BME280;51226;47.504;19.074;2023-07-31T02:58:47;99947.91;;;20.64;73.64
64792;BME280;51226;47.504;19.074;2023-07-31T03:01:50;99957.56;;;20.70;73.34
64792;BME280;51226;47.504;19.074;2023-07-31T03:04:53;99957.69;;;20.53;74.02
64792;BME280;51226;47.504;19.074;2023-07-31T03:07:56;99953.31;;;20.50;74.04
64792;BME280;51226;47.504;19.074;2023-07-31T03:10:58;99962.06;;;20.63;72.83
64792;BME280;51226;47.504;19.074;2023-07-31T03:14:02;99962.06;;;20.59;73.07
64792;BME280;51226;47.504;19.074;2023-07-31T03:17:05;99965.59;;;20.58;73.22
64792;BME280;51226;47.504;19.074;2023-07-31T03:20:08;99962.13;;;20.49;73.67
64792;BME280;51226;47.504;19.074;2023-07-31T03:23:11;99961.25;;;20.52;73.56
64792;BME280;51226;47.504;19.074;2023-07-31T03:26:14;99965.56;;;20.67;72.34
64792;BME280;51226;47.504;19.074;2023-07-31T03:29:16;99963.69;;;20.75;71.75
64792;BME280;51226;47.504;19.074;2023-07-31T03:32:19;99965.44;;;20.76;71.43
64792;BME280;51226;47.504;19.074;2023-07-31T03:35:22;99972.69;;;20.55;72.74
64792;BME280;51226;47.504;19.074;2023-07-31T03:38:25;99972.72;;;20.49;73.38
64792;BME280;51226;47.504;19.074;2023-07-31T03:41:28;99976.28;;;20.51;73.08
64792;BME280;51226;47.504;19.074;2023-07-31T03:44:31;99960.38;;;20.51;72.81
64792;BME280;51226;47.504;19.074;2023-07-31T03:47:33;99972.69;;;20.55;72.73
64792;BME280;51226;47.504;19.074;2023-07-31T03:50:37;99978.00;;;20.52;73.07
64792;BME280;51226;47.504;19.074;2023-07-31T03:53:40;99978.81;;;20.65;71.91
64792;BME280;51226;47.504;19.074;2023-07-31T03:56:43;99978.84;;;20.58;72.42
64792;BME280;51226;47.504;19.074;2023-07-31T03:59:45;99984.09;;;20.68;71.98
64792;BME280;51226;47.504;19.074;2023-07-31T04:02:48;99977.84;;;20.72;71.62
64792;BME280;51226;47.504;19.074;2023-07-31T04:05:51;99986.66;;;20.75;71.58
64792;BME280;51226;47.504;19.074;2023-07-31T04:08:54;99969.84;;;20.80;70.75
64792;BME280;51226;47.504;19.074;2023-07-31T04:11:56;99977.63;;;20.92;69.82
64792;BME280;51226;47.504;19.074;2023-07-31T04:14:59;99979.41;;;20.94;69.93
64792;BME280;51226;47.504;19.074;2023-07-31T04:18:02;99978.56;;;20.91;70.18
64792;BME280;51226;47.504;19.074;2023-07-31T04:21:04;99979.28;;;21.03;69.43
64792;BME280;51226;47.504;19.074;2023-07-31T04:24:07;99977.53;;;21.05;69.29
64792;BME280;51226;47.504;19.074;2023-07-31T04:27:10;99971.41;;;20.98;69.85
64792;BME280;51226;47.504;19.074;2023-07-31T04:30:13;99974.09;;;20.94;70.27
64792;BME280;51226;47.504;19.074;2023-07-31T04:33:15;99973.25;;;20.91;70.35
64792;BME280;51226;47.504;19.074;2023-07-31T04:36:18;99984.72;;;20.92;70.41
64792;BME280;51226;47.504;19.074;2023-07-31T04:39:21;99970.56;;;20.93;70.34
64792;BME280;51226;47.504;19.074;2023-07-31T04:42:24;99974.88;;;21.05;69.13
64792;BME280;51226;47.504;19.074;2023-07-31T04:45:26;99976.56;;;21.10;68.23
64792;BME280;51226;47.504;19.074;2023-07-31T04:48:29;99983.59;;;21.12;68.15
64792;BME280;51226;47.504;19.074;2023-07-31T04:51:32;99978.34;;;21.10;68.66
64792;BME280;51226;47.504;19.074;2023-07-31T04:54:35;99986.28;;;21.10;68.73
64792;BME280;51226;47.504;19.074;2023-07-31T04:57:37;99985.28;;;21.22;67.15
64792;BME280;51226;47.504;19.074;2023-07-31T05:00:40;99994.94;;;21.26;67.00
64792;BME280;51226;47.504;19.074;2023-07-31T05:03:43;99990.59;;;21.20;66.74
64792;BME280;51226;47.504;19.074;2023-07-31T05:06:46;99981.75;;;21.18;66.79
64792;BME280;51226;47.504;19.074;2023-07-31T05:09:48;99991.06;;;21.53;64.09
64792;BME280;51226;47.504;19.074;2023-07-31T05:12:51;99994.81;;;21.37;64.83
64792;BME280;51226;47.504;19.074;2023-07-31T05:15:54;99991.81;;;21.64;60.77
64792;BME280;51226;47.504;19.074;2023-07-31T05:18:57;100004.34;;;21.53;61.83
64792;BME280;51226;47.504;19.074;2023-07-31T05:21:59;100006.19;;;21.45;62.19
64792;BME280;51226;47.504;19.074;2023-07-31T05:25:02;100002.63;;;21.46;62.09
64792;BME280;51226;47.504;19.074;2023-07-31T05:28:05;100004.28;;;21.59;60.19
64792;BME280;51226;47.504;19.074;2023-07-31T05:31:08;100004.97;;;21.74;59.43
64792;BME280;51226;47.504;19.074;2023-07-31T05:34:10;100004.81;;;21.83;57.29
64792;BME280;51226;47.504;19.074;2023-07-31T05:37:13;100010.28;;;21.74;58.84
64792;BME280;51226;47.504;19.074;2023-07-31T05:40:16;100007.47;;;21.83;57.66
64792;BME280;51226;47.504;19.074;2023-07-31T05:43:19;100012.78;;;21.83;57.53
64792;BME280;51226;47.504;19.074;2023-07-31T05:46:21;100008.12;;;22.00;55.16
64792;BME280;51226;47.504;19.074;2023-07-31T05:49:24;100001.88;;;22.03;55.05
64792;BME280;51226;47.504;19.074;2023-07-31T05:52:27;100011.72;;;21.96;55.66
64792;BME280;51226;47.504;19.074;2023-07-31T05:55:31;100015.91;;;22.13;54.11
64792;BME280;51226;47.504;19.074;2023-07-31T05:58:34;100023.87;;;22.13;53.85
64792;BME280;51226;47.504;19.074;2023-07-31T06:01:37;100022.81;;;22.23;52.22
64792;BME280;51226;47.504;19.074;2023-07-31T06:04:40;100024.69;;;22.16;52.86
64792;BME280;51226;47.504;19.074;2023-07-31T06:07:43;100019.16;;;22.32;52.50
64792;BME280;51226;47.504;19.074;2023-07-31T06:10:46;100028.69;;;22.45;51.66
64792;BME280;51226;47.504;19.074;2023-07-31T06:13:48;100025.31;;;22.37;52.46
64792;BME280;51226;47.504;19.074;2023-07-31T06:16:52;100026.09;;;22.42;52.95
64792;BME280;51226;47.504;19.074;2023-07-31T06:19:55;100016.13;;;22.55;51.41
64792;BME280;51226;47.504;19.074;2023-07-31T06:22:59;100021.34;;;22.61;51.38
64792;BME280;51226;47.504;19.074;2023-07-31T06:26:01;100018.78;;;22.55;52.12
64792;BME280;51226;47.504;19.074;2023-07-31T06:29:04;100027.34;;;22.72;56.47
64792;BME280;51226;47.504;19.074;2023-07-31T06:32:07;100027.69;;;23.02;52.76
64792;BME280;51226;47.504;19.074;2023-07-31T06:35:10;100021.78;;;23.35;49.55
64792;BME280;51226;47.504;19.074;2023-07-31T06:38:13;100015.19;;;23.53;50.62
64792;BME280;51226;47.504;19.074;2023-07-31T06:41:16;100010.31;;;23.73;51.39
64792;BME280;51226;47.504;19.074;2023-07-31T06:44:20;100014.16;;;24.00;51.25
64792;BME280;51226;47.504;19.074;2023-07-31T06:47:25;100012.16;;;24.10;49.87
64792;BME280;51226;47.504;19.074;2023-07-31T06:50:28;100017.09;;;24.26;50.37
64792;BME280;51226;47.504;19.074;2023-07-31T06:53:31;100019.41;;;24.41;49.13
64792;BME280;51226;47.504;19.074;2023-07-31T06:56:33;100023.63;;;24.50;50.62
64792;BME280;51226;47.504;19.074;2023-07-31T06:59:37;100021.16;;;24.42;50.19
64792;BME280;51226;47.504;19.074;2023-07-31T07:02:39;100014.81;;;24.48;49.55
64792;BME280;51226;47.504;19.074;2023-07-31T07:05:42;100035.25;;;24.46;49.98
64792;BME280;51226;47.504;19.074;2023-07-31T07:08:45;100030.87;;;24.45;48.55
64792;BME280;51226;47.504;19.074;2023-07-31T07:11:48;100030.91;;;24.43;49.97
64792;BME280;51226;47.504;19.074;2023-07-31T07:14:50;100036.13;;;24.48;48.76
64792;BME280;51226;47.504;19.074;2023-07-31T07:17:55;100034.59;;;24.37;49.25
64792;BME280;51226;47.504;19.074;2023-07-31T07:20:58;100047.06;;;24.35;49.59
64792;BME280;51226;47.504;19.074;2023-07-31T07:24:01;100044.63;;;24.28;49.83
64792;BME280;51226;47.504;19.074;2023-07-31T07:27:04;100047.03;;;24.37;49.76
64792;BME280;51226;47.504;19.074;2023-07-31T07:30:09;100049.00;;;24.29;48.88
64792;BME280;51226;47.504;19.074;2023-07-31T07:33:11;100042.03;;;24.25;48.15
64792;BME280;51226;47.504;19.074;2023-07-31T07:36:15;100035.47;;;24.38;46.88
64792;BME280;51226;47.504;19.074;2023-07-31T07:39:17;100042.47;;;24.42;46.36
64792;BME280;51226;47.504;19.074;2023-07-31T07:42:20;100036.34;;;24.38;47.16
64792;BME280;51226;47.504;19.074;2023-07-31T07:45:23;100040.63;;;24.82;45.79
64792;BME280;51226;47.504;19.074;2023-07-31T07:48:26;100031.16;;;25.36;43.70
64792;BME280;51226;47.504;19.074;2023-07-31T07:51:28;100030.13;;;26.01;43.97
64792;BME280;51226;47.504;19.074;2023-07-31T07:54:33;100033.22;;;26.43;41.13
64792;BME280;51226;47.504;19.074;2023-07-31T07:57:35;100033.75;;;26.82;43.51
64792;BME280;51226;47.504;19.074;2023-07-31T08:00:38;100030.03;;;26.86;42.61
64792;BME280;51226;47.504;19.074;2023-07-31T08:03:43;100029.81;;;26.67;44.42
64792;BME280;51226;47.504;19.074;2023-07-31T08:06:48;100027.13;;;26.40;40.35
64792;BME280;51226;47.504;19.074;2023-07-31T08:09:52;100027.97;;;26.40;44.46
64792;BME280;51226;47.504;19.074;2023-07-31T08:12:54;100035.44;;;26.84;43.43
64792;BME280;51226;47.504;19.074;2023-07-31T08:15:57;100033.87;;;27.29;42.29
64792;BME280;51226;47.504;19.074;2023-07-31T08:19:00;100023.69;;;27.86;38.78
64792;BME280;51226;47.504;19.074;2023-07-31T08:22:03;100036.25;;;28.30;39.50
64792;BME280;51226;47.504;19.074;2023-07-31T08:25:06;100028.44;;;28.68;37.04
64792;BME280;51226;47.504;19.074;2023-07-31T08:28:09;100032.88;;;29.10;37.50
64792;BME280;51226;47.504;19.074;2023-07-31T08:31:11;100027.47;;;29.51;36.59
64792;BME280;51226;47.504;19.074;2023-07-31T08:34:14;100030.13;;;30.09;35.34
64792;BME280;51226;47.504;19.074;2023-07-31T08:37:17;100026.03;;;30.56;34.10
64792;BME280;51226;47.504;19.074;2023-07-31T08:40:19;100019.59;;;30.94;33.46
64792;BME280;51226;47.504;19.074;2023-07-31T08:43:25;100029.97;;;31.19;32.05
64792;BME280;51226;47.504;19.074;2023-07-31T08:46:28;100025.75;;;31.64;31.37
64792;BME280;51226;47.504;19.074;2023-07-31T08:49:30;100012.19;;;31.98;31.02
64792;BME280;51226;47.504;19.074;2023-07-31T08:52:34;100015.62;;;32.01;31.51
64792;BME280;51226;47.504;19.074;2023-07-31T08:55:37;100015.31;;;32.38;30.73
64792;BME280;51226;47.504;19.074;2023-07-31T08:58:40;100006.69;;;32.77;27.97
64792;BME280;51226;47.504;19.074;2023-07-31T09:01:44;100013.19;;;32.89;29.72
64792;BME280;51226;47.504;19.074;2023-07-31T09:04:51;100011.66;;;32.99;28.75
64792;BME280;51226;47.504;19.074;2023-07-31T09:07:54;100016.66;;;32.61;29.84
64792;BME280;51226;47.504;19.074;2023-07-31T09:11:01;100010.03;;;32.36;30.08
64792;BME280;51226;47.504;19.074;2023-07-31T09:14:11;100000.84;;;32.55;29.60
64792;BME280;51226;47.504;19.074;2023-07-31T09:17:14;100000.63;;;32.74;29.05
64792;BME280;51226;47.504;19.074;2023-07-31T09:20:21;100000.78;;;33.44;26.31
64792;BME280;51226;47.504;19.074;2023-07-31T09:23:23;100005.91;;;33.63;27.19
64792;BME280;51226;47.504;19.074;2023-07-31T09:26:33;100001.84;;;33.56;27.47
64792;BME280;51226;47.504;19.074;2023-07-31T09:29:36;99995.53;;;33.84;26.55
64792;BME280;51226;47.504;19.074;2023-07-31T09:32:39;99996.53;;;33.83;26.80
64792;BME280;51226;47.504;19.074;2023-07-31T09:35:41;99989.88;;;33.46;27.58
64792;BME280;51226;47.504;19.074;2023-07-31T09:38:44;99984.19;;;33.50;25.91
64792;BME280;51226;47.504;19.074;2023-07-31T09:41:53;99999.50;;;33.64;26.72
64792;BME280;51226;47.504;19.074;2023-07-31T09:45:01;99994.19;;;34.19;26.34
64792;BME280;51226;47.504;19.074;2023-07-31T09:48:09;99984.78;;;33.97;26.47
64792;BME280;51226;47.504;19.074;2023-07-31T09:51:12;99982.00;;;34.11;26.08
64792;BME280;51226;47.504;19.074;2023-07-31T09:54:15;99979.94;;;34.57;24.20
64792;BME280;51226;47.504;19.074;2023-07-31T09:57:18;99985.19;;;34.85;24.94
64792;BME280;51226;47.504;19.074;2023-07-31T10:00:24;99989.53;;;34.75;25.38
64792;BME280;51226;47.504;19.074;2023-07-31T10:03:31;99982.53;;;34.71;25.38
64792;BME280;51226;47.504;19.074;2023-07-31T10:06:34;99983.44;;;34.97;25.05
64792;BME280;51226;47.504;19.074;2023-07-31T10:09:37;99980.97;;;35.33;24.62
64792;BME280;51226;47.504;19.074;2023-07-31T10:12:40;99985.72;;;35.92;23.37
64792;BME280;51226;47.504;19.074;2023-07-31T10:15:43;99983.78;;;34.93;25.12
64792;BME280;51226;47.504;19.074;2023-07-31T10:18:47;99986.81;;;34.75;25.21
64792;BME280;51226;47.504;19.074;2023-07-31T10:21:50;99990.59;;;34.73;25.14
64792;BME280;51226;47.504;19.074;2023-07-31T10:24:54;99975.00;;;35.28;24.26
64792;BME280;51226;47.504;19.074;2023-07-31T10:27:58;99979.28;;;35.69;23.79
64792;BME280;51226;47.504;19.074;2023-07-31T10:31:01;99971.22;;;35.30;23.92
64792;BME280;51226;47.504;19.074;2023-07-31T10:34:05;99975.78;;;35.67;23.87
64792;BME280;51226;47.504;19.074;2023-07-31T10:37:42;99969.06;;;35.72;23.40
64792;BME280;51226;47.504;19.074;2023-07-31T10:40:40;99966.25;;;35.74;23.66
64792;BME280;51226;47.504;19.074;2023-07-31T10:43:43;99968.19;;;36.09;22.25
64792;BME280;51226;47.504;19.074;2023-07-31T10:46:45;99960.38;;;36.28;23.03
64792;BME280;51226;47.504;19.074;2023-07-31T10:49:48;99962.41;;;35.89;23.54
64792;BME280;51226;47.504;19.074;2023-07-31T10:52:52;99953.00;;;35.82;23.57
64792;BME280;51226;47.504;19.074;2023-07-31T10:55:57;99954.94;;;36.04;23.44
64792;BME280;51226;47.504;19.074;2023-07-31T10:59:01;99950.31;;;35.56;23.96
64792;BME280;51226;47.504;19.074;2023-07-31T11:02:05;99957.00;;;35.27;24.28
64792;BME280;51226;47.504;19.074;2023-07-31T11:05:40;99950.81;;;34.33;25.33
64792;BME280;51226;47.504;19.074;2023-07-31T11:08:43;99942.84;;;34.17;25.75
64792;BME280;51226;47.504;19.074;2023-07-31T11:11:47;99935.94;;;34.66;24.15
64792;BME280;51226;47.504;19.074;2023-07-31T11:14:56;99940.50;;;34.78;24.74
64792;BME280;51226;47.504;19.074;2023-07-31T11:18:03;99940.44;;;34.12;25.54
64792;BME280;51226;47.504;19.074;2023-07-31T11:21:06;99934.78;;;34.03;25.67
64792;BME280;51226;47.504;19.074;2023-07-31T11:24:09;99920.94;;;34.34;25.18
64792;BME280;51226;47.504;19.074;2023-07-31T11:27:14;99914.78;;;34.45;24.82
64792;BME280;51226;47.504;19.074;2023-07-31T11:30:18;99919.66;;;34.40;25.10
64792;BME280;51226;47.504;19.074;2023-07-31T11:33:21;99912.13;;;33.91;25.69
64792;BME280;51226;47.504;19.074;2023-07-31T11:36:24;99911.59;;;33.71;25.55
64792;BME280;51226;47.504;19.074;2023-07-31T11:39:26;99917.41;;;33.65;25.57
64792;BME280;51226;47.504;19.074;2023-07-31T11:42:29;99916.94;;;34.00;25.44
64792;BME280;51226;47.504;19.074;2023-07-31T11:45:32;99920.41;;;34.42;24.13
64792;BME280;51226;47.504;19.074;2023-07-31T11:48:36;99916.09;;;34.52;24.65
64792;BME280;51226;47.504;19.074;2023-07-31T11:51:38;99905.28;;;34.91;24.25
64792;BME280;51226;47.504;19.074;2023-07-31T11:54:42;99907.94;;;34.40;24.92
64792;BME280;51226;47.504;19.074;2023-07-31T11:57:44;99907.84;;;34.28;25.07
64792;BME280;51226;47.504;19.074;2023-07-31T12:00:51;99911.59;;;33.71;25.76
64792;BME280;51226;47.504;19.074;2023-07-31T12:03:54;99903.56;;;32.99;26.67
64792;BME280;51226;47.504;19.074;2023-07-31T12:07:00;99895.22;;;32.59;27.25
64792;BME280;51226;47.504;19.074;2023-07-31T12:10:03;99900.06;;;32.24;27.54
64792;BME280;51226;47.504;19.074;2023-07-31T12:13:10;99897.41;;;32.83;26.77
64792;BME280;51226;47.504;19.074;2023-07-31T12:16:18;99897.22;;;33.15;25.96
64792;BME280;51226;47.504;19.074;2023-07-31T12:19:21;99876.28;;;33.60;25.27
64792;BME280;51226;47.504;19.074;2023-07-31T12:22:25;99891.03;;;32.84;26.83
64792;BME280;51226;47.504;19.074;2023-07-31T12:25:32;99875.00;;;33.10;26.25
64792;BME280;51226;47.504;19.074;2023-07-31T12:28:45;99877.50;;;33.13;26.09
64792;BME280;51226;47.504;19.074;2023-07-31T12:31:48;99877.03;;;33.20;25.83
64792;BME280;51226;47.504;19.074;2023-07-31T12:34:51;99871.06;;;33.15;26.31
64792;BME280;51226;47.504;19.074;2023-07-31T12:37:55;99872.13;;;32.84;26.70
64792;BME280;51226;47.504;19.074;2023-07-31T12:40:58;99875.19;;;32.78;26.90
64792;BME280;51226;47.504;19.074;2023-07-31T12:44:01;99860.81;;;33.06;25.91
64792;BME280;51226;47.504;19.074;2023-07-31T12:47:05;99871.34;;;32.67;27.15
64792;BME280;51226;47.504;19.074;2023-07-31T12:50:08;99867.53;;;32.11;27.91
64792;BME280;51226;47.504;19.074;2023-07-31T12:53:11;99869.28;;;32.12;27.91
64792;BME280;51226;47.504;19.074;2023-07-31T12:56:14;99864.22;;;32.06;28.06
64792;BME280;51226;47.504;19.074;2023-07-31T12:59:17;99855.81;;;32.12;27.38
64792;BME280;51226;47.504;19.074;2023-07-31T13:02:20;99854.06;;;31.17;29.01
64792;BME280;51226;47.504;19.074;2023-07-31T13:05:26;99844.50;;;31.43;27.97
64792;BME280;51226;47.504;19.074;2023-07-31T13:08:29;99848.13;;;31.74;28.36
64792;BME280;51226;47.504;19.074;2023-07-31T13:11:31;99846.41;;;31.41;28.97
64792;BME280;51226;47.504;19.074;2023-07-31T13:14:34;99852.31;;;31.32;28.84
64792;BME280;51226;47.504;19.074;2023-07-31T13:17:37;99844.16;;;31.49;28.33
64792;BME280;51226;47.504;19.074;2023-07-31T13:20:40;99835.72;;;32.02;27.82
64792;BME280;51226;47.504;19.074;2023-07-31T13:23:42;99835.94;;;31.83;28.50
64792;BME280;51226;47.504;19.074;2023-07-31T13:26:45;99844.75;;;32.01;28.10
64792;BME280;51226;47.504;19.074;2023-07-31T13:29:48;99831.16;;;32.02;28.03
64792;BME280;51226;47.504;19.074;2023-07-31T13:32:51;99833.25;;;32.13;28.02
64792;BME280;51226;47.504;19.074;2023-07-31T13:35:54;99827.88;;;32.13;28.05
64792;BME280;51226;47.504;19.074;2023-07-31T13:38:56;99825.66;;;32.20;28.07
64792;BME280;51226;47.504;19.074;2023-07-31T13:41:59;99812.34;;;32.17;27.40
64792;BME280;51226;47.504;19.074;2023-07-31T13:45:02;99821.34;;;31.71;26.81
64792;BME280;51226;47.504;19.074;2023-07-31T13:48:09;99816.94;;;31.84;28.29
64792;BME280;51226;47.504;19.074;2023-07-31T13:51:11;99816.50;;;31.62;28.91
64792;BME280;51226;47.504;19.074;2023-07-31T13:54:14;99818.25;;;31.15;29.42
64792;BME280;51226;47.504;19.074;2023-07-31T13:57:18;99810.78;;;31.04;29.30
64792;BME280;51226;47.504;19.074;2023-07-31T14:00:20;99812.16;;;30.95;29.80
64792;BME280;51226;47.504;19.074;2023-07-31T14:03:23;99807.06;;;30.73;29.63
64792;BME280;51226;47.504;19.074;2023-07-31T14:06:26;99809.69;;;30.24;31.02
64792;BME280;51226;47.504;19.074;2023-07-31T14:09:29;99803.94;;;29.79;31.65
64792;BME280;51226;47.504;19.074;2023-07-31T14:12:31;99804.00;;;29.78;31.55
64792;BME280;51226;47.504;19.074;2023-07-31T14:15:45;99806.97;;;29.71;31.19
64792;BME280;51226;47.504;19.074;2023-07-31T14:18:47;99800.81;;;29.69;31.02
64792;BME280;51226;47.504;19.074;2023-07-31T14:21:51;99806.41;;;29.65;30.82
64792;BME280;51226;47.504;19.074;2023-07-31T14:25:10;99806.41;;;29.65;31.87
64792;BME280;51226;47.504;19.074;2023-07-31T14:28:14;99798.91;;;29.71;30.47
64792;BME280;51226;47.504;19.074;2023-07-31T14:31:17;99800.81;;;29.69;31.58
64792;BME280;51226;47.504;19.074;2023-07-31T14:34:20;99795.13;;;29.75;31.63
64792;BME280;51226;47.504;19.074;2023-07-31T14:37:22;99790.63;;;29.93;31.07
64792;BME280;51226;47.504;19.074;2023-07-31T14:40:25;99782.56;;;29.93;31.52
64792;BME280;51226;47.504;19.074;2023-07-31T14:43:28;99782.56;;;30.11;30.93
64792;BME280;51226;47.504;19.074;2023-07-31T14:46:31;99779.50;;;29.84;31.80
64792;BME280;51226;47.504;19.074;2023-07-31T14:49:33;99779.47;;;29.66;30.63
64792;BME280;51226;47.504;19.074;2023-07-31T14:52:36;99787.22;;;29.72;31.51
64792;BME280;51226;47.504;19.074;2023-07-31T14:55:38;99788.09;;;29.73;31.37
64792;BME280;51226;47.504;19.074;2023-07-31T14:58:41;99771.59;;;29.81;31.98
64792;BME280;51226;47.504;19.074;2023-07-31T15:01:44;99775.84;;;29.67;31.59
64792;BME280;51226;47.504;19.074;2023-07-31T15:04:47;99770.28;;;29.53;30.96
64792;BME280;51226;47.504;19.074;2023-07-31T15:07:49;99771.31;;;29.50;30.49
64792;BME280;51226;47.504;19.074;2023-07-31T15:10:54;99764.91;;;29.53;30.53
64792;BME280;51226;47.504;19.074;2023-07-31T15:13:59;99771.13;;;29.53;32.22
64792;BME280;51226;47.504;19.074;2023-07-31T15:17:02;99771.53;;;29.46;32.36
64792;BME280;51226;47.504;19.074;2023-07-31T15:20:05;99762.94;;;29.20;32.94
64792;BME280;51226;47.504;19.074;2023-07-31T15:23:08;99767.00;;;29.10;30.61
64792;BME280;51226;47.504;19.074;2023-07-31T15:26:11;99765.28;;;29.09;31.24
64792;BME280;51226;47.504;19.074;2023-07-31T15:29:13;99766.50;;;29.01;32.97
64792;BME280;51226;47.504;19.074;2023-07-31T15:32:21;99761.94;;;28.85;32.44
64792;BME280;51226;47.504;19.074;2023-07-31T15:35:24;99758.19;;;28.70;33.01
64792;BME280;51226;47.504;19.074;2023-07-31T15:38:27;99753.78;;;28.69;31.80
64792;BME280;51226;47.504;19.074;2023-07-31T15:41:30;99751.38;;;28.62;33.77
64792;BME280;51226;47.504;19.074;2023-07-31T15:44:32;99751.50;;;28.59;32.28
64792;BME280;51226;47.504;19.074;2023-07-31T15:47:36;99743.03;;;28.48;31.82
64792;BME280;51226;47.504;19.074;2023-07-31T15:50:39;99736.97;;;28.44;34.20
64792;BME280;51226;47.504;19.074;2023-07-31T15:53:42;99733.09;;;28.31;32.00
64792;BME280;51226;47.504;19.074;2023-07-31T15:56:44;99729.69;;;28.27;34.32